Wickham, United Kingdom
Current Conditions -  °F | °C
As of 6:50 PM on Sunday 23 Nov 2014 (Local Time) from EGUB Reporting Station
Overcast Overcast  
Wind Chill: 43°   Ceiling: 16000
Heat Index: 43°   Visibility: 6mi
Dew Point: 43°   Wind: 2mph
Humidity: 100%   Direction: 290°WNW
Pressure: 30.09"   Gusts: NA
Location:  51.44°N, 1.43°W
Report Text: EGUB 231850Z AUTO 29002KT 9000 // OVC160/// 06/06 Q1019
Loading
Personal Weather Stations






























Interactive Weather Map New forecast layout! Learn more

10-Day Weather Forecast

Advertisements
Track Severe Weather on mobile